Time;durP1;ratioP1;P1;durP2;ratioP2;P2;SDS_P1;SDS_P2;PMS_P1;PMS_P2;Temp;Humidity;BMP_temperature;BMP_pressure;BME280_temperature;BME280_humidity;BME280_pressure;Samples;Min_cycle;Max_cycle;Signal;HPM_P1;HPM_P2
2021/09/29 00:00:21;;;;;;;8.73;4.60;;;14.90;96.80;;;;;;5114890;28;20200;-80
2021/09/29 00:02:47;;;;;;;9.53;4.83;;;15.10;96.50;;;;;;5096828;28;20194;-83
2021/09/29 00:05:12;;;;;;;9.40;4.50;;;15.10;96.50;;;;;;5114536;28;20230;-81
2021/09/29 00:07:38;;;;;;;10.10;4.70;;;15.00;96.60;;;;;;5113941;28;20194;-82
2021/09/29 00:10:05;;;;;;;8.87;4.57;;;15.10;96.20;;;;;;5114864;28;20167;-82
2021/09/29 00:12:31;;;;;;;11.57;4.80;;;15.10;96.30;;;;;;5114773;28;20260;-81
2021/09/29 00:14:57;;;;;;;7.87;4.83;;;15.10;96.20;;;;;;5114733;28;20672;-81
2021/09/29 00:17:23;;;;;;;11.60;4.93;;;15.10;96.30;;;;;;5114522;28;20167;-81
2021/09/29 00:19:48;;;;;;;7.20;4.50;;;15.20;95.90;;;;;;5114096;28;20308;-81
2021/09/29 00:22:14;;;;;;;7.50;4.60;;;15.20;95.70;;;;;;5114654;28;20171;-80
2021/09/29 00:24:40;;;;;;;7.67;4.43;;;15.30;95.10;;;;;;5095900;28;20653;-81
2021/09/29 00:27:06;;;;;;;8.37;4.50;;;15.30;95.30;;;;;;5114466;28;20186;-81
2021/09/29 00:29:32;;;;;;;7.73;4.33;;;15.20;95.40;;;;;;5095792;28;20645;-80
2021/09/29 00:32:04;;;;;;;6.67;4.50;;;15.10;95.70;;;;;;5114840;28;20170;-80
2021/09/29 00:34:35;;;;;;;7.80;4.23;;;15.00;95.80;;;;;;5115341;28;20167;-81
2021/09/29 00:37:02;;;;;;;6.90;4.00;;;15.10;95.80;;;;;;5114336;28;20161;-81
2021/09/29 00:39:28;;;;;;;9.03;4.13;;;15.10;95.40;;;;;;5114411;28;20244;-81
2021/09/29 00:41:54;;;;;;;9.37;4.00;;;15.20;95.10;;;;;;5096466;28;20299;-80
2021/09/29 00:44:20;;;;;;;6.20;3.97;;;15.30;94.40;;;;;;5114594;28;20227;-82
2021/09/29 00:46:48;;;;;;;7.53;3.83;;;15.30;94.10;;;;;;5114564;28;20167;-81
2021/09/29 00:49:14;;;;;;;9.60;3.80;;;15.30;94.10;;;;;;5114140;28;20659;-79
2021/09/29 00:51:40;;;;;;;7.43;3.70;;;15.30;93.80;;;;;;5095772;28;20171;-79
2021/09/29 00:54:08;;;;;;;7.63;3.37;;;15.30;93.10;;;;;;5114112;28;20167;-82
2021/09/29 00:56:34;;;;;;;8.43;3.83;;;15.20;93.30;;;;;;5095766;28;20267;-81
2021/09/29 00:59:00;;;;;;;7.97;3.67;;;15.10;94.30;;;;;;5095227;28;20207;-81
2021/09/29 01:01:26;;;;;;;6.33;3.30;;;15.10;94.50;;;;;;5113701;28;20175;-81
2021/09/29 01:03:52;;;;;;;12.37;4.17;;;15.20;94.00;;;;;;5113738;28;20170;-81
2021/09/29 01:06:43;;;;;;;6.27;3.80;;;15.10;93.80;;;;;;5113643;28;20645;-80
2021/09/29 01:09:17;;;;;;;6.13;3.23;;;15.20;93.90;;;;;;5113641;28;20160;-79
2021/09/29 01:12:28;;;;;;;8.33;3.10;;;15.20;92.20;;;;;;5113588;28;20163;-81
2021/09/29 01:15:06;;;;;;;5.73;3.13;;;15.20;92.20;;;;;;5072288;28;20184;-80
2021/09/29 01:17:37;;;;;;;5.70;3.00;;;15.20;92.40;;;;;;5095393;28;20169;-81
2021/09/29 01:20:07;;;;;;;6.07;3.40;;;15.10;92.50;;;;;;5095089;28;20686;-82
2021/09/29 01:23:04;;;;;;;6.03;3.07;;;15.00;93.50;;;;;;5113560;28;20204;-81
2021/09/29 01:25:51;;;;;;;7.33;3.57;;;15.00;93.70;;;;;;5113512;28;20192;-81
2021/09/29 01:28:20;;;;;;;9.77;3.70;;;15.00;93.50;;;;;;5113468;28;20650;-80
2021/09/29 01:30:46;;;;;;;6.27;3.37;;;15.10;93.40;;;;;;5113602;28;20208;-81
2021/09/29 01:33:13;;;;;;;7.20;3.57;;;15.20;93.10;;;;;;5113294;28;20632;-80
2021/09/29 01:35:40;;;;;;;7.37;3.17;;;15.00;92.80;;;;;;5115280;28;20165;-80
2021/09/29 01:38:07;;;;;;;9.33;3.40;;;15.10;92.70;;;;;;5113487;28;20163;-80
2021/09/29 01:40:33;;;;;;;6.50;2.70;;;15.00;92.70;;;;;;5113299;28;20216;-80
2021/09/29 01:42:59;;;;;;;6.10;2.60;;;15.10;92.80;;;;;;5113354;28;20259;-80
2021/09/29 01:45:25;;;;;;;5.67;2.60;;;15.20;92.10;;;;;;5113532;28;20260;-80
2021/09/29 01:47:50;;;;;;;8.60;3.03;;;15.00;91.60;;;;;;5094672;28;20182;-80
2021/09/29 01:50:25;;;;;;;6.63;2.40;;;15.00;91.80;;;;;;5113708;28;20186;-82
2021/09/29 01:52:52;;;;;;;5.27;2.20;;;15.00;91.20;;;;;;5113034;28;20243;-80
2021/09/29 01:55:21;;;;;;;8.43;2.40;;;15.00;90.90;;;;;;5113286;28;20165;-82
2021/09/29 01:57:48;;;;;;;6.10;2.50;;;15.00;90.90;;;;;;5113302;28;20180;-82
2021/09/29 02:00:16;;;;;;;7.30;1.93;;;15.00;90.30;;;;;;5113021;28;20240;-80
2021/09/29 02:02:43;;;;;;;5.37;2.63;;;15.00;90.40;;;;;;5112821;28;20222;-80
2021/09/29 02:05:10;;;;;;;6.30;2.47;;;14.90;90.50;;;;;;5113663;28;20171;-81
2021/09/29 02:07:36;;;;;;;8.03;2.83;;;15.00;90.00;;;;;;5094899;28;20177;-81
2021/09/29 02:10:03;;;;;;;4.83;2.37;;;15.00;90.90;;;;;;5113214;28;20171;-79
2021/09/29 02:12:30;;;;;;;6.13;2.17;;;15.00;90.00;;;;;;5113115;28;20167;-81
2021/09/29 02:14:57;;;;;;;6.30;2.37;;;15.00;90.00;;;;;;5113577;28;20170;-79
2021/09/29 02:17:22;;;;;;;5.70;2.30;;;15.00;90.00;;;;;;5112951;28;20183;-80
2021/09/29 02:19:48;;;;;;;8.67;2.37;;;15.00;89.70;;;;;;5113051;28;20253;-81
2021/09/29 02:22:17;;;;;;;7.47;2.40;;;15.00;89.60;;;;;;5113089;28;20577;-80
2021/09/29 02:24:44;;;;;;;4.63;1.90;;;14.90;89.70;;;;;;5094796;28;20187;-80
2021/09/29 02:27:11;;;;;;;6.13;2.50;;;14.90;89.70;;;;;;5112980;28;20706;-80
2021/09/29 02:29:37;;;;;;;5.00;2.30;;;14.90;90.40;;;;;;5112873;28;20272;-81
2021/09/29 02:32:03;;;;;;;5.17;2.20;;;14.90;90.70;;;;;;5115862;28;20650;-81
2021/09/29 02:34:29;;;;;;;6.03;2.20;;;15.00;91.40;;;;;;5116620;28;20169;-79
2021/09/29 02:36:54;;;;;;;5.40;1.70;;;15.00;91.50;;;;;;5116616;28;20242;-80
2021/09/29 02:39:20;;;;;;;5.40;1.87;;;14.90;91.60;;;;;;5116523;28;20668;-81
2021/09/29 02:41:46;;;;;;;5.60;1.40;;;15.00;91.90;;;;;;5115628;28;20194;-78
2021/09/29 02:44:13;;;;;;;6.37;1.80;;;14.90;91.40;;;;;;5125878;28;20174;-80
2021/09/29 02:46:39;;;;;;;5.10;1.70;;;14.90;91.50;;;;;;5110313;28;20172;-81
2021/09/29 02:49:06;;;;;;;4.13;2.00;;;14.90;91.80;;;;;;5098327;28;20182;-82
2021/09/29 02:51:32;;;;;;;6.50;1.77;;;15.00;91.90;;;;;;5116449;28;20522;-80
2021/09/29 02:53:57;;;;;;;5.77;2.03;;;15.00;92.00;;;;;;5116350;28;20175;-81
2021/09/29 02:56:23;;;;;;;4.70;1.80;;;14.90;91.60;;;;;;5116154;28;20699;-79
2021/09/29 02:58:49;;;;;;;6.70;1.80;;;14.90;91.80;;;;;;5116101;28;20565;-80
2021/09/29 03:01:15;;;;;;;5.27;1.53;;;14.90;91.70;;;;;;5116019;28;20222;-82
2021/09/29 03:03:41;;;;;;;4.40;1.70;;;14.90;91.50;;;;;;5115973;28;20643;-81
2021/09/29 03:06:06;;;;;;;3.90;1.37;;;15.00;91.20;;;;;;5116398;28;20172;-81
2021/09/29 03:08:32;;;;;;;6.40;2.03;;;14.90;91.70;;;;;;5117243;28;20179;-79
2021/09/29 03:10:58;;;;;;;8.53;1.93;;;14.80;92.20;;;;;;5105255;28;20215;-78
2021/09/29 03:13:24;;;;;;;5.50;2.10;;;14.80;93.10;;;;;;5121634;28;20172;-78
2021/09/29 03:15:49;;;;;;;7.13;1.80;;;14.80;93.30;;;;;;5098425;28;20175;-80
2021/09/29 03:18:16;;;;;;;5.83;2.00;;;14.80;93.50;;;;;;5116184;28;20198;-79
2021/09/29 03:20:45;;;;;;;5.53;1.67;;;14.80;93.80;;;;;;5116310;28;20580;-79
2021/09/29 03:23:11;;;;;;;6.47;1.53;;;14.70;93.90;;;;;;5115838;28;20185;-80
2021/09/29 03:25:37;;;;;;;6.33;1.83;;;14.70;94.20;;;;;;5115715;28;20248;-80
2021/09/29 03:28:03;;;;;;;6.30;1.97;;;14.70;94.60;;;;;;5115546;28;20179;-82
2021/09/29 03:30:28;;;;;;;6.43;1.87;;;14.60;95.70;;;;;;5115332;28;20167;-81
2021/09/29 03:32:54;;;;;;;6.90;1.93;;;14.50;96.90;;;;;;5115821;28;20191;-79
2021/09/29 03:35:20;;;;;;;5.07;2.03;;;14.50;98.70;;;;;;5097446;28;20174;-81
2021/09/29 03:37:46;;;;;;;4.53;1.80;;;14.40;99.90;;;;;;5097160;28;20254;-81
2021/09/29 03:40:14;;;;;;;8.77;2.10;;;14.30;99.90;;;;;;5117913;28;20756;-81
2021/09/29 03:42:41;;;;;;;4.97;2.07;;;14.20;99.90;;;;;;5126868;28;20182;-81
2021/09/29 03:45:09;;;;;;;5.77;1.60;;;14.20;99.90;;;;;;5132252;28;20150;-80
2021/09/29 03:47:35;;;;;;;4.57;1.73;;;14.10;99.90;;;;;;5138623;28;20170;-81
2021/09/29 03:50:01;;;;;;;5.93;2.03;;;14.10;99.90;;;;;;5121137;28;20189;-80
2021/09/29 03:52:27;;;;;;;4.20;2.00;;;14.10;99.90;;;;;;5126107;28;20176;-83
2021/09/29 03:54:53;;;;;;;6.20;2.17;;;14.10;99.90;;;;;;5118977;28;20534;-81
2021/09/29 03:57:18;;;;;;;5.07;2.13;;;14.20;99.90;;;;;;5101790;28;20171;-80
2021/09/29 03:59:44;;;;;;;5.10;1.80;;;14.20;99.90;;;;;;5116890;28;20194;-79
2021/09/29 04:02:10;;;;;;;8.20;2.57;;;14.20;99.90;;;;;;5115203;28;20171;-80
2021/09/29 04:04:39;;;;;;;7.80;2.53;;;14.10;99.90;;;;;;5115226;28;20636;-81
2021/09/29 04:07:05;;;;;;;5.23;2.20;;;14.10;99.90;;;;;;5096683;28;20673;-81
2021/09/29 04:09:31;;;;;;;6.47;2.50;;;14.10;99.90;;;;;;5114836;28;20196;-80
2021/09/29 04:11:56;;;;;;;6.17;2.00;;;14.20;99.90;;;;;;5096419;28;20647;-81
2021/09/29 04:14:22;;;;;;;5.63;2.00;;;14.20;99.90;;;;;;5114776;28;20654;-81
2021/09/29 04:16:48;;;;;;;6.13;1.87;;;14.20;99.90;;;;;;5114539;28;20258;-80
2021/09/29 04:19:15;;;;;;;4.30;1.83;;;14.30;99.90;;;;;;5114202;28;20183;-81
2021/09/29 04:21:41;;;;;;;4.73;1.90;;;14.50;99.90;;;;;;5114484;28;20258;-83
2021/09/29 04:24:08;;;;;;;6.47;2.10;;;14.30;99.90;;;;;;5095933;28;20233;-79
2021/09/29 04:26:33;;;;;;;6.87;1.80;;;14.30;99.90;;;;;;5114121;28;20198;-81
2021/09/29 04:28:59;;;;;;;5.53;1.83;;;14.30;99.90;;;;;;5114646;28;20164;-80
2021/09/29 04:31:25;;;;;;;7.60;2.10;;;14.20;99.90;;;;;;5114357;28;20200;-80
2021/09/29 04:33:50;;;;;;;5.83;2.17;;;14.20;99.90;;;;;;5114398;28;20267;-80
2021/09/29 04:36:16;;;;;;;5.47;1.83;;;14.20;99.90;;;;;;5114323;28;20596;-81
2021/09/29 04:38:42;;;;;;;4.57;1.50;;;14.20;99.90;;;;;;5102693;28;20172;-80
2021/09/29 04:41:08;;;;;;;6.37;2.00;;;14.20;99.90;;;;;;5135473;28;20230;-80
2021/09/29 04:43:33;;;;;;;6.60;1.80;;;14.20;99.90;;;;;;5135517;28;20179;-81
2021/09/29 04:45:59;;;;;;;6.20;1.60;;;14.30;99.90;;;;;;5132630;28;20172;-79
2021/09/29 04:48:24;;;;;;;5.93;1.57;;;14.20;99.90;;;;;;5136913;28;20214;-80
2021/09/29 04:50:50;;;;;;;8.03;2.13;;;14.20;99.90;;;;;;5135230;28;20175;-80
2021/09/29 04:53:16;;;;;;;6.27;1.60;;;14.20;99.90;;;;;;5107972;28;20176;-80
2021/09/29 04:55:42;;;;;;;7.40;1.80;;;14.20;99.90;;;;;;5119092;28;20627;-81
2021/09/29 04:58:10;;;;;;;7.50;1.80;;;14.30;99.90;;;;;;5118523;28;20176;-81
2021/09/29 05:00:39;;;;;;;5.77;1.63;;;14.20;99.90;;;;;;5096915;28;20237;-80
2021/09/29 05:03:07;;;;;;;5.53;1.90;;;14.20;99.90;;;;;;5096000;28;20174;-81
2021/09/29 05:05:35;;;;;;;4.17;1.60;;;14.00;99.90;;;;;;5114700;28;20170;-82
2021/09/29 05:08:03;;;;;;;3.47;1.60;;;14.00;99.90;;;;;;5114147;28;20155;-79
2021/09/29 05:10:39;;;;;;;6.57;1.90;;;14.00;99.90;;;;;;5114104;28;20167;-81
2021/09/29 05:13:16;;;;;;;6.43;1.90;;;14.10;99.90;;;;;;5114417;28;20280;-81
2021/09/29 05:15:42;;;;;;;4.63;2.23;;;14.10;99.90;;;;;;5114809;28;20171;-81
2021/09/29 05:18:08;;;;;;;7.33;2.17;;;14.10;99.90;;;;;;5113336;28;20167;-81
2021/09/29 05:20:34;;;;;;;3.83;1.70;;;14.10;99.90;;;;;;5113494;28;20210;-80
2021/09/29 05:23:00;;;;;;;6.47;2.17;;;14.20;99.90;;;;;;5113679;28;20285;-81
2021/09/29 05:25:26;;;;;;;5.40;2.00;;;14.10;99.90;;;;;;5113477;28;20215;-80
2021/09/29 05:27:52;;;;;;;6.70;1.97;;;14.20;99.90;;;;;;5113995;28;20182;-83
2021/09/29 05:30:18;;;;;;;8.33;2.03;;;14.40;99.90;;;;;;5113708;28;20228;-81
2021/09/29 05:32:43;;;;;;;6.23;2.03;;;14.30;99.90;;;;;;5095292;28;20199;-80
2021/09/29 05:35:09;;;;;;;6.47;2.00;;;14.30;99.90;;;;;;5113558;28;20174;-80
2021/09/29 05:37:35;;;;;;;6.53;2.07;;;14.30;99.90;;;;;;5095275;28;20196;-81
2021/09/29 05:40:01;;;;;;;3.53;1.60;;;14.40;99.90;;;;;;5113022;28;20206;-80
2021/09/29 05:42:28;;;;;;;5.47;1.83;;;14.20;99.90;;;;;;5094743;28;20179;-82
2021/09/29 05:44:54;;;;;;;3.90;1.30;;;14.30;99.90;;;;;;5111438;28;20171;-80
2021/09/29 05:47:19;;;;;;;6.57;1.70;;;14.20;99.90;;;;;;5077542;28;20179;-80
2021/09/29 05:49:45;;;;;;;4.53;1.57;;;14.20;99.90;;;;;;5080309;28;20186;-79
2021/09/29 05:52:11;;;;;;;4.37;1.30;;;14.20;99.90;;;;;;5078289;28;20627;-82
2021/09/29 05:54:36;;;;;;;6.27;1.97;;;14.10;99.90;;;;;;5096980;28;20171;-78
2021/09/29 05:57:03;;;;;;;5.57;1.80;;;14.10;99.90;;;;;;5097190;28;20171;-82
2021/09/29 05:59:29;;;;;;;4.50;1.40;;;14.10;99.90;;;;;;5067670;28;20260;-81
2021/09/29 06:01:54;;;;;;;2.80;1.20;;;14.00;99.90;;;;;;5082664;28;20575;-79
2021/09/29 06:04:20;;;;;;;2.33;1.20;;;14.10;99.90;;;;;;5094104;28;20533;-79
2021/09/29 06:06:46;;;;;;;3.67;1.30;;;14.00;99.90;;;;;;5096418;28;20187;-80
2021/09/29 06:09:11;;;;;;;3.13;1.30;;;13.90;99.90;;;;;;5095599;28;20187;-81
2021/09/29 06:11:37;;;;;;;2.47;1.00;;;13.90;99.90;;;;;;5095898;28;20210;-80
2021/09/29 06:14:04;;;;;;;1.93;1.00;;;13.90;99.90;;;;;;5080371;28;20180;-81
2021/09/29 06:16:34;;;;;;;3.30;1.20;;;13.90;99.50;;;;;;5059345;28;20176;-81
2021/09/29 06:19:00;;;;;;;2.53;1.13;;;14.00;99.90;;;;;;5057946;28;20318;-82
2021/09/29 06:21:26;;;;;;;7.00;3.03;;;14.00;99.90;;;;;;5076666;28;20267;-81
2021/09/29 06:23:51;;;;;;;4.83;1.30;;;13.90;99.90;;;;;;5077946;28;20264;-80
2021/09/29 06:26:17;;;;;;;4.90;1.43;;;13.90;99.90;;;;;;5067214;28;20172;-79
2021/09/29 06:28:43;;;;;;;3.80;1.00;;;13.80;99.90;;;;;;5076242;28;20221;-81
2021/09/29 06:31:08;;;;;;;4.10;0.93;;;13.80;99.90;;;;;;5057428;28;20628;-83
2021/09/29 06:33:35;;;;;;;4.87;1.20;;;13.70;99.90;;;;;;5074243;28;20256;-80
2021/09/29 06:36:01;;;;;;;2.40;0.80;;;13.70;99.90;;;;;;5074374;28;20204;-80
2021/09/29 06:38:27;;;;;;;2.37;0.80;;;13.80;99.90;;;;;;5074694;28;20222;-81
2021/09/29 06:40:53;;;;;;;3.20;0.83;;;13.70;99.90;;;;;;5074690;28;20417;-79
2021/09/29 06:43:19;;;;;;;3.50;1.20;;;13.60;99.90;;;;;;5075770;28;20161;-81
2021/09/29 06:45:44;;;;;;;3.37;1.13;;;13.70;99.90;;;;;;5075189;28;20603;-78
2021/09/29 06:48:10;;;;;;;2.47;1.00;;;13.60;99.90;;;;;;5057171;28;20640;-84
2021/09/29 06:50:37;;;;;;;2.30;0.83;;;13.60;99.90;;;;;;5075442;28;20199;-82
2021/09/29 06:53:03;;;;;;;4.07;1.50;;;13.60;99.90;;;;;;5057540;28;20241;-81
2021/09/29 06:55:29;;;;;;;2.77;1.30;;;13.80;99.90;;;;;;5074947;28;20173;-81
2021/09/29 06:57:56;;;;;;;6.23;1.80;;;13.90;99.90;;;;;;5056569;28;20314;-83
2021/09/29 07:00:23;;;;;;;3.73;1.40;;;14.10;99.90;;;;;;5056475;28;20295;-83
2021/09/29 07:02:50;;;;;;;3.20;0.90;;;14.00;99.90;;;;;;5076329;28;20160;-82
2021/09/29 07:05:17;;;;;;;2.93;1.10;;;13.90;99.90;;;;;;5074522;28;20265;-82
2021/09/29 07:07:43;;;;;;;4.67;1.70;;;13.70;99.90;;;;;;5057265;28;20173;-83
2021/09/29 07:10:09;;;;;;;2.77;1.40;;;13.70;99.90;;;;;;5075159;28;20173;-81
2021/09/29 07:12:39;;;;;;;3.93;1.30;;;13.60;99.90;;;;;;5057250;28;20196;-82
2021/09/29 07:15:06;;;;;;;3.53;1.20;;;13.50;99.90;;;;;;5076403;28;20168;-81
2021/09/29 07:17:32;;;;;;;3.47;1.33;;;13.50;99.90;;;;;;5059848;28;20175;-81
2021/09/29 07:19:59;;;;;;;2.23;1.03;;;13.50;99.90;;;;;;5075072;28;20196;-82
2021/09/29 07:22:26;;;;;;;3.10;1.10;;;13.50;99.90;;;;;;5056958;28;20180;-80
2021/09/29 07:24:52;;;;;;;3.60;1.37;;;13.60;99.90;;;;;;5057191;28;20202;-83
2021/09/29 07:27:18;;;;;;;2.80;1.10;;;13.60;99.90;;;;;;5057268;28;20192;-81
2021/09/29 07:29:45;;;;;;;8.67;1.70;;;13.60;99.90;;;;;;5075934;28;20226;-83
2021/09/29 07:32:11;;;;;;;4.00;1.10;;;13.60;99.90;;;;;;5057478;28;20283;-82
2021/09/29 07:34:37;;;;;;;3.40;1.30;;;13.60;99.90;;;;;;5056927;28;20198;-80
2021/09/29 07:37:03;;;;;;;3.57;1.07;;;13.60;99.90;;;;;;5056471;28;20251;-81
2021/09/29 07:39:31;;;;;;;3.60;1.20;;;13.60;99.90;;;;;;5057087;28;20204;-81
2021/09/29 07:41:57;;;;;;;6.03;1.20;;;13.60;99.90;;;;;;5055342;28;20172;-82
2021/09/29 07:44:23;;;;;;;3.07;1.00;;;13.50;99.90;;;;;;5056587;28;20636;-81
2021/09/29 07:46:49;;;;;;;3.80;1.50;;;13.60;99.90;;;;;;5075606;28;20187;-85
2021/09/29 07:49:16;;;;;;;1.73;0.90;;;13.60;99.90;;;;;;5057947;28;20283;-85
2021/09/29 07:51:42;;;;;;;4.30;1.23;;;13.70;99.90;;;;;;5056563;28;20226;-84
2021/09/29 07:54:07;;;;;;;3.23;1.20;;;13.70;99.90;;;;;;5074974;28;20169;-83
2021/09/29 07:56:33;;;;;;;2.20;1.10;;;13.70;99.90;;;;;;5056221;28;20169;-84
2021/09/29 07:59:08;;;;;;;1.63;1.10;;;13.70;99.90;;;;;;5074599;28;20200;-81
2021/09/29 08:01:34;;;;;;;3.27;1.30;;;13.80;99.90;;;;;;5060136;28;20184;-81
2021/09/29 08:04:00;;;;;;;2.43;1.53;;;13.80;99.90;;;;;;5087279;28;20183;-81
2021/09/29 08:06:25;;;;;;;3.50;1.30;;;13.70;99.90;;;;;;5075254;28;20168;-83
2021/09/29 08:08:53;;;;;;;6.50;1.23;;;13.90;99.90;;;;;;5073132;28;20173;-83
2021/09/29 08:11:19;;;;;;;4.83;1.30;;;13.90;99.90;;;;;;5061878;28;20221;-83
2021/09/29 08:13:47;;;;;;;2.73;0.90;;;13.90;99.90;;;;;;5076717;28;20157;-83
2021/09/29 08:16:14;;;;;;;4.40;1.33;;;14.00;99.90;;;;;;5056911;28;20246;-83
2021/09/29 08:18:40;;;;;;;2.43;1.00;;;14.00;99.90;;;;;;5057227;28;20180;-83
2021/09/29 08:21:09;;;;;;;3.27;1.17;;;13.90;99.90;;;;;;5056791;28;20315;-84
2021/09/29 08:23:40;;;;;;;3.37;1.13;;;13.90;99.90;;;;;;5055413;28;20254;-85
2021/09/29 08:28:53;;;;;;;3.60;1.50;;;14.10;99.90;;;;;;5073411;28;20263;-81
2021/09/29 08:31:27;;;;;;;2.80;1.53;;;13.90;99.90;;;;;;5060009;28;20650;-80
2021/09/29 08:39:17;;;;;;;3.07;1.97;;;14.10;99.90;;;;;;5087643;28;20183;-81
2021/09/29 08:42:08;;;;;;;5.53;2.30;;;14.20;99.90;;;;;;5093708;28;20621;-77
2021/09/29 08:44:55;;;;;;;8.60;3.07;;;14.30;99.90;;;;;;5081631;28;20176;-78
2021/09/29 08:50:07;;;;;;;4.80;3.10;;;14.40;99.90;;;;;;5091674;28;20156;-83
2021/09/29 08:53:45;;;;;;;7.33;3.13;;;14.60;99.90;;;;;;5093511;28;20188;-80
2021/09/29 09:17:06;;;;;;;4.40;2.50;;;14.80;99.60;;;;;;5089453;28;20175;-82
2021/09/29 09:19:36;;;;;;;6.27;2.87;;;14.70;98.60;;;;;;5081633;28;20238;-83
2021/09/29 09:22:05;;;;;;;4.60;1.97;;;14.70;98.30;;;;;;5082266;28;20173;-82
2021/09/29 09:24:33;;;;;;;4.33;2.90;;;14.90;98.40;;;;;;5079217;28;20184;-83
2021/09/29 09:27:05;;;;;;;16.60;10.73;;;14.70;97.90;;;;;;5057474;28;20191;-84
2021/09/29 09:29:42;;;;;;;3.47;2.30;;;14.80;96.70;;;;;;5057496;28;20515;-84
2021/09/29 09:32:11;;;;;;;4.17;2.43;;;14.80;95.10;;;;;;5075693;28;20180;-85
2021/09/29 09:34:38;;;;;;;4.90;2.40;;;14.80;94.70;;;;;;5075809;28;20164;-84
2021/09/29 09:37:16;;;;;;;6.10;3.37;;;14.70;94.20;;;;;;5082276;28;20168;-82
2021/09/29 09:39:43;;;;;;;6.57;2.47;;;14.70;94.70;;;;;;5078229;28;20188;-81
2021/09/29 09:42:10;;;;;;;4.00;2.20;;;14.70;92.10;;;;;;5083250;28;20234;-82
2021/09/29 09:44:40;;;;;;;6.77;2.40;;;14.70;92.40;;;;;;5065786;28;20207;-82
2021/09/29 09:47:13;;;;;;;5.23;2.30;;;14.80;91.50;;;;;;5067973;28;20176;-84
2021/09/29 09:49:52;;;;;;;7.83;2.53;;;14.90;91.00;;;;;;5081379;28;20178;-83
2021/09/29 09:52:42;;;;;;;2.60;2.10;;;14.80;91.00;;;;;;5080227;28;20157;-84
2021/09/29 09:55:15;;;;;;;6.07;2.00;;;15.00;87.80;;;;;;5060903;28;20266;-84
2021/09/29 09:57:53;;;;;;;4.23;2.20;;;15.00;77.90;;;;;;5078101;28;20172;-86
2021/09/29 10:00:26;;;;;;;4.83;2.00;;;15.00;78.60;;;;;;5059549;28;20299;-83
2021/09/29 10:02:54;;;;;;;2.57;1.70;;;15.20;77.10;;;;;;5067614;28;20269;-83
2021/09/29 10:05:23;;;;;;;4.30;1.83;;;15.40;72.20;;;;;;5091674;28;20179;-84
2021/09/29 10:07:50;;;;;;;3.67;1.80;;;15.50;70.10;;;;;;5088889;28;20224;-84
2021/09/29 10:27:13;;;;;;;2.73;1.00;;;15.90;50.70;;;;;;5079313;28;20637;-84
2021/09/29 10:29:55;;;;;;;3.37;1.03;;;15.90;52.70;;;;;;5079059;28;20181;-85
2021/09/29 10:43:26;;;;;;;1.87;0.80;;;15.70;54.60;;;;;;5077660;28;20168;-86
2021/09/29 11:05:28;;;;;;;5.33;1.17;;;15.20;25.40;;;;;;5078846;28;20661;-83
2021/09/29 11:29:51;;;;;;;6.40;2.03;;;13.70;79.40;;;;;;5109096;28;20197;-82
2021/09/29 11:34:50;;;;;;;3.80;1.47;;;13.80;74.30;;;;;;5116561;28;20163;-82
2021/09/29 12:11:10;;;;;;;2.77;1.27;;;15.80;29.70;;;;;;5095755;28;20177;-81
2021/09/29 12:13:44;;;;;;;6.37;1.60;;;15.70;27.10;;;;;;5099893;28;20192;-80
2021/09/29 12:16:14;;;;;;;6.37;1.53;;;15.60;30.10;;;;;;5082089;28;20178;-81
2021/09/29 12:18:43;;;;;;;5.27;2.13;;;15.70;27.50;;;;;;5080371;28;20169;-79
2021/09/29 12:21:10;;;;;;;5.03;1.63;;;15.60;28.60;;;;;;5078251;28;20543;-82
2021/09/29 12:23:36;;;;;;;4.10;1.57;;;15.70;28.20;;;;;;5097042;28;20181;-84
2021/09/29 12:26:26;;;;;;;3.00;1.63;;;15.70;24.90;;;;;;5078482;28;20291;-82
2021/09/29 12:29:09;;;;;;;3.80;1.73;;;15.50;11.60;;;;;;5078629;28;20183;-83
2021/09/29 12:31:57;;;;;;;4.70;1.47;;;15.60;25.90;;;;;;5095333;28;20193;-82
2021/09/29 12:34:28;;;;;;;5.67;1.40;;;15.50;29.00;;;;;;5082050;28;20329;-82
2021/09/29 12:36:54;;;;;;;2.97;1.40;;;15.40;28.20;;;;;;5110147;28;20255;-80
2021/09/29 12:39:29;;;;;;;3.23;1.33;;;15.30;19.10;;;;;;5084566;28;20271;-80
2021/09/29 12:41:57;;;;;;;2.50;1.50;;;15.20;11.20;;;;;;5099944;28;20185;-79
2021/09/29 12:44:23;;;;;;;3.43;1.80;;;15.20;1.00;;;;;;5119496;28;20161;-81
2021/09/29 12:49:30;;;;;;;3.10;1.10;;;15.30;1.00;;;;;;5113441;28;20196;-80
2021/09/29 12:52:12;;;;;;;2.50;1.33;;;15.50;6.70;;;;;;5078860;28;20168;-81
2021/09/29 12:54:48;;;;;;;4.73;1.20;;;15.50;14.10;;;;;;5097898;28;20144;-80
2021/09/29 12:57:13;;;;;;;3.70;1.40;;;15.40;11.00;;;;;;5102038;28;20167;-81
2021/09/29 12:59:39;;;;;;;2.10;0.87;;;15.40;9.70;;;;;;5094987;28;20211;-82
2021/09/29 13:02:05;;;;;;;3.93;1.07;;;15.20;1.00;;;;;;5075749;28;20667;-81
2021/09/29 13:04:31;;;;;;;2.10;0.73;;;14.90;11.60;;;;;;5075997;28;20194;-81
2021/09/29 13:06:57;;;;;;;2.27;0.90;;;14.80;4.70;;;;;;5081918;28;20175;-81
2021/09/29 13:09:28;;;;;;;3.60;1.40;;;14.60;10.30;;;;;;5114261;28;20171;-81
2021/09/29 13:11:54;;;;;;;6.53;1.90;;;14.90;9.50;;;;;;5114115;28;20221;-81
2021/09/29 13:14:20;;;;;;;3.10;0.90;;;15.10;1.00;;;;;;5114447;28;20171;-80
2021/09/29 13:16:46;;;;;;;4.10;1.00;;;15.10;1.00;;;;;;5114253;28;20634;-81
2021/09/29 13:19:15;;;;;;;2.83;0.90;;;15.00;1.00;;;;;;5114003;28;20170;-79
2021/09/29 13:21:51;;;;;;;2.67;1.13;;;15.10;1.00;;;;;;5115012;28;20549;-79
2021/09/29 13:24:53;;;;;;;2.20;1.00;;;15.00;1.00;;;;;;5114501;28;20271;-80
2021/09/29 13:37:42;;;;;;;1.90;0.90;;;14.90;16.20;;;;;;5077460;28;20258;-79
2021/09/29 13:40:08;;;;;;;5.87;1.40;;;14.70;17.40;;;;;;5072938;28;20208;-78
2021/09/29 13:42:34;;;;;;;3.47;0.90;;;14.70;19.00;;;;;;5094406;28;20211;-80
2021/09/29 13:45:00;;;;;;;5.70;0.93;;;14.90;12.80;;;;;;5054898;28;20181;-81
2021/09/29 13:47:26;;;;;;;5.37;1.27;;;15.10;10.60;;;;;;5072603;28;20294;-80
2021/09/29 13:49:55;;;;;;;6.40;2.93;;;15.20;14.10;;;;;;5072066;28;20209;-79
2021/09/29 13:52:24;;;;;;;7.67;3.63;;;15.10;16.70;;;;;;5059998;28;20207;-79
2021/09/29 13:54:51;;;;;;;3.07;1.57;;;15.10;13.20;;;;;;5089184;28;20165;-78
2021/09/29 13:57:25;;;;;;;3.70;1.13;;;14.90;19.80;;;;;;5074161;28;20188;-80
2021/09/29 13:59:59;;;;;;;6.57;1.60;;;14.90;17.50;;;;;;5092222;28;20200;-79
2021/09/29 14:29:36;;;;;;;2.67;1.33;;;15.50;1.00;;;;;;5076938;28;20612;-83
2021/09/29 14:32:08;;;;;;;4.77;1.10;;;15.70;1.00;;;;;;5084921;28;20171;-83
2021/09/29 14:34:33;;;;;;;4.17;1.13;;;15.60;1.00;;;;;;5082989;28;20178;-82
2021/09/29 14:37:01;;;;;;;3.60;1.50;;;15.70;1.00;;;;;;5057580;28;20537;-81
2021/09/29 14:39:27;;;;;;;3.80;1.13;;;16.00;1.00;;;;;;5057995;28;20173;-83
2021/09/29 14:41:55;;;;;;;2.97;1.57;;;15.90;1.00;;;;;;5084233;28;20196;-83
2021/09/29 14:44:21;;;;;;;4.50;1.00;;;16.00;1.00;;;;;;5116575;28;20170;-83
2021/09/29 14:46:46;;;;;;;3.60;1.00;;;16.30;1.00;;;;;;5095241;28;20171;-82
2021/09/29 14:49:12;;;;;;;3.50;1.03;;;16.40;1.00;;;;;;5077864;28;20197;-83
2021/09/29 14:51:38;;;;;;;4.07;1.57;;;16.40;1.00;;;;;;5077739;28;20172;-84
2021/09/29 14:54:05;;;;;;;3.63;1.10;;;16.40;1.00;;;;;;5096054;28;20168;-82
2021/09/29 14:56:31;;;;;;;3.80;1.33;;;16.40;1.00;;;;;;5061736;28;20189;-84
2021/09/29 14:58:57;;;;;;;4.43;1.37;;;16.50;1.00;;;;;;5057402;28;20189;-83
2021/09/29 15:01:23;;;;;;;4.27;1.33;;;16.60;1.00;;;;;;5059007;28;20277;-82
2021/09/29 15:03:53;;;;;;;3.47;1.10;;;16.30;1.00;;;;;;5077883;28;20162;-84
2021/09/29 15:06:20;;;;;;;4.70;1.60;;;15.90;1.00;;;;;;5058817;28;20578;-83
2021/09/29 15:08:45;;;;;;;4.27;1.10;;;15.80;1.00;;;;;;5075358;28;20175;-82
2021/09/29 15:11:13;;;;;;;4.30;1.50;;;15.80;1.00;;;;;;5081990;28;20193;-83
2021/09/29 15:14:26;;;;;;;4.20;1.23;;;16.10;1.00;;;;;;5097454;28;20640;-84
2021/09/29 15:16:35;;;;;;;3.60;0.90;;;16.20;1.00;;;;;;5081508;28;20215;-83
2021/09/29 15:48:30;;;;;;;6.73;1.80;;;16.20;1.00;;;;;;5097586;28;20170;-82
2021/09/29 15:54:06;;;;;;;5.37;2.97;;;16.40;1.00;;;;;;5098957;28;20167;-82
2021/09/29 16:01:43;;;;;;;5.93;2.70;;;15.50;1.00;;;;;;5096802;28;20208;-82
2021/09/29 16:09:52;;;;;;;3.30;1.37;;;15.20;4.90;;;;;;5102687;28;20178;-82
2021/09/29 16:30:52;;;;;;;3.60;1.80;;;14.30;48.60;;;;;;5061859;28;20251;-82
2021/09/29 16:36:03;;;;;;;4.50;2.27;;;14.40;48.60;;;;;;5093139;28;20185;-86
2021/09/29 16:38:29;;;;;;;4.80;1.70;;;14.40;48.10;;;;;;5076998;28;20270;-85
2021/09/29 16:40:55;;;;;;;5.57;1.97;;;14.80;34.20;;;;;;5084206;28;20237;-82
2021/09/29 16:43:21;;;;;;;2.47;1.03;;;14.60;39.90;;;;;;5116358;28;20179;-84
2021/09/29 16:45:48;;;;;;;5.40;1.13;;;14.40;34.90;;;;;;5114750;28;20608;-84
2021/09/29 16:48:17;;;;;;;5.17;1.30;;;14.20;38.10;;;;;;5103223;28;20266;-83
2021/09/29 16:53:28;;;;;;;2.90;1.10;;;14.20;42.40;;;;;;5093562;28;20197;-83
2021/09/29 16:55:54;;;;;;;3.30;1.40;;;14.30;38.90;;;;;;5078854;28;20184;-83
2021/09/29 17:01:04;;;;;;;2.57;0.93;;;13.90;39.20;;;;;;5089098;28;20210;-82